Yasawa-I-Rara, Fiji
Current Conditions -  °F | °C
As of 11:00 PM on Wednesday 26 Nov 2014 (Local Time) from NFFN Reporting Station
Scattered Clouds Scattered Clouds  
Wind Chill: 75°   Ceiling: Unl
Heat Index: 75°   Visibility: 6mi
Dew Point: 66°   Wind: 3mph
Humidity: 73%   Direction: 150°SSE
Pressure: 29.83"   Gusts: NA
Location:  16.7°S, 177.58°E
Report Text: NFFN 261100Z 15003KT 9999 SCT030 24/19 Q1010 NOSIG
Loading
Personal Weather Stations






























Interactive Weather Map New forecast layout! Learn more

10-Day Weather Forecast

Advertisements
Track Severe Weather on mobile